Flight Track Log - Related Links

Times and Time Zones

All times are in EDT time to prevent confusion due to time zone crossing. See the CTL18 flight status page for this flight to view local times or setup timezone preferences in your user account.

Time Position Orientation Groundspeed Altitude Reporting Facility
EDT Latitude Longitude Course Direction KTS MPH feet Rate Location/Type
Tue 07:52:00 PM 43.3904 -84.0180 160° South  Level Estimated
Tue 07:53:00 PM 43.3637 -83.9994 153° Southeast  Level FlightAware Approximate
Tue 07:54:00 PM 43.3371 -83.9809 153° Southeast  Level FlightAware Approximate
Tue 07:55:00 PM 43.3085 -83.9689 160° South  Level Estimated
Tue 07:56:00 PM 43.2809 -83.9532 157° South  Level FlightAware Approximate
Tue 07:57:00 PM 43.2533 -83.9375 157° South  Level FlightAware Approximate
Tue 07:58:00 PM 43.2246 -83.9258 163° South  Level Estimated
Tue 07:59:00 PM 43.1964 -83.9124 161° South  Level FlightAware Approximate
Tue 08:00:00 PM 43.1682 -83.8990 161° South  Level FlightAware Approximate
Tue 08:01:00 PM 43.1399 -83.8856 161° South  Level FlightAware Approximate
Tue 08:01:34 PM 42.9739 -83.8039 165° South 160 184 5,100  Level Cleveland Center
Tue 08:02:00 PM 43.1113 -83.8741 160° South  Level Estimated
Tue 08:02:41 PM 42.9286 -83.7817 160° South 158 182 5,100  Level Cleveland Center
Tue 08:03:00 PM 43.0832 -83.8599 160° South  Level FlightAware Approximate
Tue 08:03:42 PM 42.8875 -83.7628 161° South 156 180 5,100  Level Cleveland Center
Tue 08:04:00 PM 43.0552 -83.8456 160° South  Level FlightAware Approximate
Tue 08:04:43 PM 42.8442 -83.7436 162° South 160 184 5,000  Level Cleveland Center
Tue 08:05:00 PM 43.0272 -83.8314 160° South  Level FlightAware Approximate
Tue 08:05:44 PM 42.7986 -83.7269 165° South 160 184 5,000  Level Cleveland Center
Tue 08:06:00 PM 42.9992 -83.8172 160° South  Level FlightAware Approximate
Tue 08:06:45 PM 42.7575 -83.7108 164° South 157 181 5,000  Level Cleveland Center
Tue 08:07:40 PM 42.7183 -83.6975 166° South 156 180 5,000  Level Cleveland Center
Tue 08:08:41 PM 42.6792 -83.6814 163° South 157 181 5,000 -49 Level Cleveland Center
Tue 08:09:42 PM 42.6356 -83.6708 170° South 156 180 4,900  Descending Cleveland Center
Tue 08:10:44 PM 42.5900 -83.6575 168° South 153 176 5,000 47 Climbing Cleveland Center
Tue 08:11:51 PM 42.5467 -83.6411 164° South 153 176 5,000 -246 Level Cleveland Center
Tue 08:12:46 PM 42.5033 -83.6278 167° South 163 188 4,500 -517 Descending Cleveland Center
Tue 08:13:47 PM 42.4600 -83.6117 165° South 168 193 4,000 -422 Descending Cleveland Center
Tue 08:14:54 PM 42.4103 -83.5922 164° South 156 180 3,600 -295 Descending Cleveland Center
Tue 08:15:49 PM 42.3733 -83.5767 163° South 158 182 3,400 -362 Descending Cleveland Center
Tue 08:16:50 PM 42.3319 -83.5578 161° South 152 175 2,900 -639 Descending Cleveland Center
Tue 08:17:51 PM 42.2911 -83.5306 154° Southeast 147 169 2,100 -738 Descending Cleveland Center
Tue 08:18:52 PM 42.2603 -83.5122 156° South 117 135 1,400 -689 Descending Cleveland Center
Tue 08:20:00 PM 42.2333 -83.5167 160° South  Level FlightAware Approximate
Tue 08:27:00 PM 42.2393 -83.5310 160° South  Level Estimated
Tue 08:28:00 PM 42.2393 -83.5310 160° South  Level Estimated

Login

Don't have an account? Register now (free) for customized features, flight alerts, and more!